createdAt,value
2023-03-24T00:00:17.603Z,31.58
2023-03-24T00:02:47.780Z,31.91
2023-03-24T00:05:20.019Z,31.78
2023-03-24T00:07:54.491Z,31.40
2023-03-24T00:10:24.286Z,31.29
2023-03-24T00:12:53.164Z,31.26
2023-03-24T00:15:24.631Z,31.13
2023-03-24T00:17:56.295Z,30.90
2023-03-24T00:20:26.863Z,30.81
2023-03-24T00:22:59.363Z,30.68
2023-03-24T00:25:36.700Z,30.72
2023-03-24T00:28:07.063Z,30.46
2023-03-24T00:30:36.316Z,30.78
2023-03-24T00:33:05.330Z,30.46
2023-03-24T00:35:34.979Z,30.39
2023-03-24T00:38:04.515Z,30.37
2023-03-24T00:40:33.270Z,30.30
2023-03-24T00:43:02.340Z,30.24
2023-03-24T00:45:35.037Z,30.30
2023-03-24T00:48:05.592Z,30.28
2023-03-24T00:50:35.609Z,30.21
2023-03-24T00:53:04.761Z,29.57
2023-03-24T00:55:34.723Z,29.85
2023-03-24T00:58:04.131Z,28.72
2023-03-24T01:00:34.316Z,27.79
2023-03-24T01:03:04.550Z,27.50
2023-03-24T01:05:33.844Z,27.88
2023-03-24T01:08:08.165Z,27.58
2023-03-24T01:10:50.982Z,26.97
2023-03-24T01:13:29.331Z,27.24
2023-03-24T01:15:58.574Z,27.18
2023-03-24T01:18:28.559Z,26.49
2023-03-24T01:20:58.969Z,26.73
2023-03-24T01:23:28.632Z,25.97
2023-03-24T01:25:57.894Z,25.35
2023-03-24T01:28:27.989Z,25.88
2023-03-24T01:30:57.184Z,25.18
2023-03-24T01:33:26.216Z,24.95
2023-03-24T01:35:55.136Z,24.26
2023-03-24T01:38:24.032Z,24.47
2023-03-24T01:40:54.168Z,24.27
2023-03-24T01:43:31.780Z,23.74
2023-03-24T01:46:30.564Z,23.45
2023-03-24T01:49:18.762Z,22.78
2023-03-24T01:51:50.863Z,22.80
2023-03-24T01:54:37.553Z,22.60
2023-03-24T01:57:14.978Z,22.25
2023-03-24T01:59:50.132Z,22.65
2023-03-24T02:02:47.521Z,21.78
2023-03-24T02:05:25.612Z,21.02
2023-03-24T02:08:00.125Z,21.41
2023-03-24T02:10:34.004Z,21.88
2023-03-24T02:13:04.644Z,21.10
2023-03-24T02:15:38.744Z,20.40
2023-03-24T02:18:23.159Z,20.62
2023-03-24T02:21:11.624Z,20.41
2023-03-24T02:24:19.117Z,19.63
2023-03-24T02:26:57.709Z,18.76
2023-03-24T02:29:52.804Z,19.62
2023-03-24T02:32:46.024Z,19.60
2023-03-24T02:35:17.472Z,20.25
2023-03-24T02:38:05.007Z,19.67
2023-03-24T02:40:47.361Z,18.94
2023-03-24T02:43:37.773Z,18.87
2023-03-24T02:46:29.807Z,18.12
2023-03-24T02:49:26.868Z,18.63
2023-03-24T02:52:18.083Z,17.86
2023-03-24T02:54:56.413Z,17.64
2023-03-24T02:57:44.317Z,18.08
2023-03-24T03:01:00.305Z,17.62
2023-03-24T03:03:53.795Z,17.16
2023-03-24T03:06:30.181Z,17.26
2023-03-24T03:09:04.682Z,17.18
2023-03-24T03:11:33.480Z,17.18
2023-03-24T03:14:18.712Z,16.05
2023-03-24T03:16:54.386Z,16.21
2023-03-24T03:19:34.925Z,15.46
2023-03-24T03:22:06.995Z,15.90
2023-03-24T03:24:44.071Z,15.89
2023-03-24T03:27:21.398Z,15.91
2023-03-24T03:29:57.622Z,15.40
2023-03-24T03:32:35.219Z,15.26
2023-03-24T03:35:27.637Z,15.92
2023-03-24T03:38:22.463Z,15.41
2023-03-24T03:41:00.270Z,14.77
2023-03-24T03:43:35.482Z,14.98
2023-03-24T03:46:07.083Z,14.66
2023-03-24T03:48:41.227Z,14.49
2023-03-24T03:51:14.168Z,14.71
2023-03-24T03:54:03.244Z,14.38
2023-03-24T03:56:36.066Z,14.13
2023-03-24T03:59:38.674Z,14.17
2023-03-24T04:02:31.358Z,13.83
2023-03-24T04:05:14.657Z,13.37
2023-03-24T04:08:29.289Z,13.11
2023-03-24T04:11:47.398Z,13.29
2023-03-24T04:15:09.298Z,13.19
2023-03-24T04:18:28.775Z,13.83
2023-03-24T04:21:33.954Z,13.97
2023-03-24T04:24:33.432Z,13.67
2023-03-24T04:27:15.237Z,13.57
2023-03-24T04:29:56.161Z,12.97
2023-03-24T04:32:54.915Z,13.22
2023-03-24T04:35:43.250Z,13.45
2023-03-24T04:38:28.373Z,13.26
2023-03-24T04:41:14.725Z,13.35
2023-03-24T04:43:48.070Z,12.99
2023-03-24T04:46:18.690Z,12.93
2023-03-24T04:48:53.854Z,12.64
2023-03-24T04:51:30.378Z,12.82
2023-03-24T04:54:14.008Z,12.99
2023-03-24T04:56:55.894Z,12.94
2023-03-24T04:59:31.426Z,13.13
2023-03-24T05:02:04.806Z,12.80
2023-03-24T05:04:39.408Z,12.82
2023-03-24T05:07:19.822Z,12.47
2023-03-24T05:09:51.626Z,12.45
2023-03-24T05:12:20.422Z,12.37
2023-03-24T05:15:08.064Z,12.60
2023-03-24T05:17:38.607Z,12.05
2023-03-24T05:20:11.752Z,12.11
2023-03-24T05:22:43.940Z,12.60
2023-03-24T05:25:13.256Z,12.71
2023-03-24T05:27:42.947Z,12.63
2023-03-24T05:30:21.118Z,12.29
2023-03-24T05:32:54.218Z,12.61
2023-03-24T05:35:23.828Z,12.30
2023-03-24T05:37:52.806Z,12.33
2023-03-24T05:40:21.747Z,12.40
2023-03-24T05:42:58.254Z,11.94
2023-03-24T05:45:31.832Z,11.40
2023-03-24T05:48:02.518Z,11.81
2023-03-24T05:50:49.071Z,11.52
2023-03-24T05:53:17.809Z,11.51
2023-03-24T05:56:06.524Z,11.69
2023-03-24T05:58:53.800Z,12.06
2023-03-24T06:01:24.053Z,11.94
2023-03-24T06:04:00.459Z,11.82
2023-03-24T06:06:29.560Z,11.50
2023-03-24T06:08:59.128Z,11.49
2023-03-24T06:11:29.482Z,11.40
2023-03-24T06:14:05.177Z,11.68
2023-03-24T06:16:44.586Z,11.11
2023-03-24T06:19:17.990Z,11.24
2023-03-24T06:22:01.040Z,11.22
2023-03-24T06:24:33.097Z,11.36
2023-03-24T06:27:09.613Z,11.45
2023-03-24T06:29:39.132Z,11.12
2023-03-24T06:32:08.860Z,10.85
2023-03-24T06:34:44.839Z,10.79
2023-03-24T06:37:19.978Z,10.86
2023-03-24T06:39:48.673Z,11.09
2023-03-24T06:42:20.266Z,11.03
2023-03-24T06:44:50.054Z,11.26
2023-03-24T06:47:19.585Z,11.24
2023-03-24T06:49:49.312Z,11.22
2023-03-24T06:52:18.604Z,11.21
2023-03-24T06:54:47.577Z,11.06
2023-03-24T06:57:17.383Z,11.30
2023-03-24T07:00:07.474Z,11.45
2023-03-24T07:02:44.238Z,11.14
2023-03-24T07:05:14.031Z,11.10
2023-03-24T07:10:40.298Z,10.51
2023-03-24T07:13:10.602Z,10.63
2023-03-24T07:15:41.899Z,10.75
2023-03-24T07:18:14.216Z,11.48
2023-03-24T07:20:45.710Z,11.37
2023-03-24T07:23:17.447Z,11.36
2023-03-24T07:25:55.875Z,11.26
2023-03-24T07:28:44.793Z,10.95
2023-03-24T07:31:14.719Z,11.07
2023-03-24T07:33:45.302Z,10.43
2023-03-24T07:36:15.731Z,11.09
2023-03-24T07:38:44.912Z,11.06
2023-03-24T07:41:22.128Z,11.56
2023-03-24T07:43:56.621Z,11.71
2023-03-24T07:46:35.035Z,11.09
2023-03-24T07:49:18.129Z,11.13
2023-03-24T07:51:54.724Z,11.29
2023-03-24T07:54:27.667Z,11.17
2023-03-24T07:56:57.433Z,10.56
2023-03-24T07:59:27.952Z,10.92
2023-03-24T08:02:21.176Z,11.05
2023-03-24T08:05:06.435Z,11.12
2023-03-24T08:07:56.145Z,11.52
2023-03-24T08:10:28.343Z,11.40
2023-03-24T08:12:59.168Z,11.67
2023-03-24T08:15:29.113Z,11.50
2023-03-24T08:17:58.282Z,11.33
2023-03-24T08:20:27.824Z,11.27
2023-03-24T08:22:56.966Z,11.69
2023-03-24T08:25:27.319Z,11.94
2023-03-24T08:27:56.738Z,11.30
2023-03-24T08:30:27.351Z,11.52
2023-03-24T08:32:59.917Z,11.28
2023-03-24T08:35:34.769Z,11.47
2023-03-24T08:38:06.874Z,11.39
2023-03-24T08:40:38.007Z,11.82
2023-03-24T08:43:10.302Z,12.05
2023-03-24T08:45:39.725Z,12.36
2023-03-24T08:48:10.528Z,13.84
2023-03-24T08:50:42.880Z,15.02
2023-03-24T08:53:13.082Z,16.01
2023-03-24T08:55:44.282Z,16.33
2023-03-24T08:58:19.220Z,16.54
2023-03-24T09:00:50.014Z,16.71
2023-03-24T09:03:23.026Z,17.31
2023-03-24T09:05:52.060Z,17.75
2023-03-24T09:08:21.670Z,17.52
2023-03-24T09:10:51.965Z,17.56
2023-03-24T09:13:21.842Z,18.09
2023-03-24T09:15:58.781Z,17.75
2023-03-24T09:18:27.381Z,18.34
2023-03-24T09:20:56.796Z,18.31
2023-03-24T09:23:25.866Z,18.80
2023-03-24T09:25:55.037Z,18.35
2023-03-24T09:28:28.637Z,18.65
2023-03-24T09:30:59.783Z,19.09
2023-03-24T09:33:30.596Z,18.93
2023-03-24T09:36:01.901Z,19.13
2023-03-24T09:38:31.070Z,19.55
2023-03-24T09:41:03.387Z,19.56
2023-03-24T09:43:43.188Z,19.72
2023-03-24T09:46:22.143Z,19.24
2023-03-24T09:48:58.087Z,19.86
2023-03-24T09:51:30.092Z,20.07
2023-03-24T09:54:23.408Z,20.33
2023-03-24T09:56:52.694Z,20.14
2023-03-24T09:59:31.867Z,20.40
2023-03-24T10:02:01.354Z,20.54
2023-03-24T10:04:32.780Z,20.18
2023-03-24T10:07:23.319Z,20.49
2023-03-24T10:09:59.953Z,20.68
2023-03-24T10:12:49.227Z,20.35
2023-03-24T10:15:35.112Z,20.81
2023-03-24T10:18:34.789Z,20.36
2023-03-24T10:21:18.416Z,20.61
2023-03-24T10:23:47.182Z,20.84
2023-03-24T10:26:33.837Z,20.37
2023-03-24T10:29:36.941Z,20.70
2023-03-24T10:32:23.536Z,20.94
2023-03-24T10:34:57.335Z,20.70
2023-03-24T10:37:26.232Z,20.97
2023-03-24T10:39:55.144Z,21.32
2023-03-24T10:42:29.235Z,21.48
2023-03-24T10:44:58.520Z,20.97
2023-03-24T10:47:32.838Z,21.16
2023-03-24T10:50:14.293Z,21.28
2023-03-24T10:52:49.412Z,21.46
2023-03-24T10:55:20.937Z,21.71
2023-03-24T10:57:54.405Z,22.04
2023-03-24T11:00:33.101Z,21.71
2023-03-24T11:03:09.413Z,21.75
2023-03-24T11:05:41.261Z,22.06
2023-03-24T11:08:29.025Z,22.13
2023-03-24T11:10:58.149Z,22.39
2023-03-24T11:13:35.505Z,22.47
2023-03-24T11:16:17.283Z,22.79
2023-03-24T11:19:02.919Z,22.71
2023-03-24T11:21:38.182Z,22.96
2023-03-24T11:24:16.690Z,23.16
2023-03-24T11:27:03.927Z,22.96
2023-03-24T11:29:34.044Z,22.80
2023-03-24T11:32:06.028Z,23.01
2023-03-24T11:34:42.647Z,22.82
2023-03-24T11:37:28.371Z,23.11
2023-03-24T11:40:18.175Z,22.98
2023-03-24T11:42:51.977Z,23.09
2023-03-24T11:45:29.665Z,23.13
2023-03-24T11:48:00.306Z,23.14
2023-03-24T11:50:36.786Z,23.28
2023-03-24T11:53:29.215Z,23.58
2023-03-24T11:56:13.022Z,23.29
2023-03-24T11:58:49.628Z,23.68
2023-03-24T12:01:22.205Z,23.70
2023-03-24T12:04:09.461Z,23.69
2023-03-24T12:06:50.621Z,23.82
2023-03-24T12:09:33.391Z,23.62
2023-03-24T12:12:09.371Z,23.77
2023-03-24T12:14:56.769Z,23.33
2023-03-24T12:17:32.535Z,23.58
2023-03-24T12:20:38.133Z,23.48
2023-03-24T12:23:21.450Z,23.69
2023-03-24T12:26:11.008Z,23.38
2023-03-24T12:28:56.013Z,23.50
2023-03-24T12:31:55.483Z,23.58
2023-03-24T12:35:11.049Z,23.50
2023-03-24T12:37:40.861Z,23.58
2023-03-24T12:40:32.278Z,23.52
2023-03-24T12:43:21.735Z,23.46
2023-03-24T12:45:54.875Z,23.31
2023-03-24T12:48:52.149Z,23.47
2023-03-24T12:51:39.826Z,23.57
2023-03-24T12:54:26.667Z,23.74
2023-03-24T12:57:12.822Z,23.61
2023-03-24T13:00:12.369Z,23.89
2023-03-24T13:03:05.578Z,23.80
2023-03-24T13:05:40.140Z,23.82
2023-03-24T13:08:39.109Z,23.81
2023-03-24T13:11:21.813Z,23.88
2023-03-24T13:13:57.093Z,23.95
2023-03-24T13:16:32.707Z,24.11
2023-03-24T13:19:03.437Z,23.83
2023-03-24T13:21:36.017Z,24.16
2023-03-24T13:24:15.446Z,23.96
2023-03-24T13:26:51.013Z,24.31
2023-03-24T13:29:49.269Z,24.23
2023-03-24T13:32:22.568Z,24.19
2023-03-24T13:35:16.691Z,24.27
2023-03-24T13:37:58.010Z,24.20
2023-03-24T13:40:33.186Z,24.01
2023-03-24T13:43:12.771Z,23.88
2023-03-24T13:45:54.708Z,24.36
2023-03-24T13:48:39.122Z,24.15
2023-03-24T13:51:18.828Z,24.42
2023-03-24T13:54:02.747Z,24.23
2023-03-24T13:56:46.395Z,24.66
2023-03-24T13:59:31.319Z,24.34
2023-03-24T14:02:19.915Z,24.03
2023-03-24T14:05:32.400Z,24.27
2023-03-24T14:08:07.249Z,24.28
2023-03-24T14:10:46.594Z,24.13
2023-03-24T14:13:15.501Z,24.38
2023-03-24T14:15:57.356Z,24.55
2023-03-24T14:18:26.426Z,24.43
2023-03-24T14:20:58.739Z,24.57
2023-03-24T14:23:50.495Z,24.41
2023-03-24T14:26:23.733Z,24.63
2023-03-24T14:28:54.909Z,24.90
2023-03-24T14:31:31.597Z,24.61
2023-03-24T14:34:02.964Z,24.56
2023-03-24T14:36:42.066Z,24.65
2023-03-24T14:39:27.719Z,24.53
2023-03-24T14:41:58.710Z,24.71
2023-03-24T14:44:54.132Z,24.73
2023-03-24T14:47:29.897Z,24.63
2023-03-24T14:50:02.487Z,24.73
2023-03-24T14:52:45.422Z,24.60
2023-03-24T14:55:20.243Z,24.39
2023-03-24T14:57:57.536Z,24.64
2023-03-24T15:00:32.679Z,24.52
2023-03-24T15:03:32.550Z,25.11
2023-03-24T15:06:24.981Z,24.56
2023-03-24T15:08:55.848Z,24.87
2023-03-24T15:11:44.691Z,24.69
2023-03-24T15:14:25.759Z,24.36
2023-03-24T15:17:25.876Z,24.91
2023-03-24T15:19:56.168Z,24.64
2023-03-24T15:22:28.012Z,24.81
2023-03-24T15:25:00.728Z,24.62
2023-03-24T15:27:32.252Z,24.87
2023-03-24T15:30:01.648Z,24.59
2023-03-24T15:32:39.586Z,24.69
2023-03-24T15:35:13.343Z,25.00
2023-03-24T15:37:48.858Z,24.65
2023-03-24T15:40:30.937Z,24.87
2023-03-24T15:43:08.655Z,24.75
2023-03-24T15:46:01.120Z,24.87
2023-03-24T15:48:39.296Z,24.61
2023-03-24T15:51:12.060Z,24.83
2023-03-24T15:53:46.307Z,24.66
2023-03-24T15:56:28.040Z,24.80
2023-03-24T15:58:58.348Z,24.89
2023-03-24T16:01:37.009Z,24.89
2023-03-24T16:04:07.792Z,24.85
2023-03-24T16:06:37.633Z,24.79
2023-03-24T16:09:11.521Z,24.72
2023-03-24T16:11:42.108Z,24.68
2023-03-24T16:14:33.350Z,24.66
2023-03-24T16:17:07.698Z,24.45
2023-03-24T16:19:36.578Z,24.63
2023-03-24T16:22:12.315Z,25.05
2023-03-24T16:24:41.514Z,24.43
2023-03-24T16:27:12.968Z,24.58
2023-03-24T16:29:43.950Z,24.70
2023-03-24T16:32:13.142Z,24.55
2023-03-24T16:34:42.753Z,24.72
2023-03-24T16:37:11.536Z,24.60
2023-03-24T16:39:40.957Z,24.83
2023-03-24T16:42:10.470Z,24.67
2023-03-24T16:44:39.247Z,24.90
2023-03-24T16:47:12.083Z,24.94
2023-03-24T16:49:41.418Z,24.62
2023-03-24T16:52:14.255Z,24.84
2023-03-24T16:54:43.046Z,24.84
2023-03-24T16:57:11.867Z,24.83
2023-03-24T16:59:40.984Z,24.98
2023-03-24T17:02:11.947Z,24.93
2023-03-24T17:04:41.895Z,24.91
2023-03-24T17:07:10.964Z,25.22
2023-03-24T17:09:39.889Z,24.87
2023-03-24T17:12:11.670Z,25.13
2023-03-24T17:14:40.986Z,25.07
2023-03-24T17:17:12.355Z,24.96
2023-03-24T17:19:43.737Z,24.77
2023-03-24T17:22:17.797Z,25.11
2023-03-24T17:24:48.726Z,24.84
2023-03-24T17:27:21.844Z,25.06
2023-03-24T17:29:50.937Z,24.82
2023-03-24T17:32:21.829Z,24.81
2023-03-24T17:34:51.534Z,24.94
2023-03-24T17:37:20.622Z,24.76
2023-03-24T17:39:49.437Z,25.16
2023-03-24T17:42:18.492Z,25.00
2023-03-24T17:44:47.388Z,24.94
2023-03-24T17:47:16.730Z,24.92
2023-03-24T17:49:45.646Z,25.03
2023-03-24T17:52:14.964Z,25.07
2023-03-24T17:54:45.417Z,24.89
2023-03-24T17:57:15.452Z,24.81
2023-03-24T17:59:44.915Z,24.68
2023-03-24T18:02:15.147Z,25.03
2023-03-24T18:04:44.197Z,25.10
2023-03-24T18:07:13.064Z,25.14
2023-03-24T18:09:41.889Z,25.34
2023-03-24T18:12:10.791Z,25.04
2023-03-24T18:14:39.544Z,25.02
2023-03-24T18:17:09.968Z,25.25
2023-03-24T18:19:38.992Z,24.92
2023-03-24T18:22:07.715Z,25.11
2023-03-24T18:24:39.279Z,25.18
2023-03-24T18:27:10.417Z,25.04
2023-03-24T18:29:39.940Z,25.26
2023-03-24T18:32:08.748Z,25.05
2023-03-24T18:34:39.457Z,25.18
2023-03-24T18:37:08.241Z,25.49
2023-03-24T18:39:37.064Z,25.46
2023-03-24T18:42:06.737Z,25.55
2023-03-24T18:44:35.764Z,25.56
2023-03-24T18:47:04.584Z,25.54
2023-03-24T18:49:33.437Z,25.36
2023-03-24T18:52:02.279Z,25.54
2023-03-24T18:54:31.036Z,25.32
2023-03-24T18:57:00.224Z,25.79
2023-03-24T18:59:29.161Z,25.68
2023-03-24T19:01:58.797Z,25.50
2023-03-24T19:04:28.033Z,25.65
2023-03-24T19:06:57.004Z,25.77
2023-03-24T19:09:26.302Z,26.05
2023-03-24T19:11:55.028Z,25.80
2023-03-24T19:14:25.785Z,26.04
2023-03-24T19:16:54.540Z,26.21
2023-03-24T19:19:23.332Z,25.94
2023-03-24T19:21:52.198Z,25.70
2023-03-24T19:24:21.348Z,26.08
2023-03-24T19:26:50.046Z,25.98
2023-03-24T19:29:18.867Z,26.15
2023-03-24T19:31:50.116Z,26.13
2023-03-24T19:34:19.135Z,26.01
2023-03-24T19:36:49.666Z,26.42
2023-03-24T19:39:18.608Z,26.48
2023-03-24T19:41:47.369Z,26.53
2023-03-24T19:44:16.140Z,26.48
2023-03-24T19:46:44.917Z,26.64
2023-03-24T19:49:13.910Z,26.46
2023-03-24T19:51:42.667Z,26.60
2023-03-24T19:54:11.475Z,26.76
2023-03-24T19:56:40.317Z,26.70
2023-03-24T19:59:09.340Z,26.60
2023-03-24T20:01:39.056Z,26.84
2023-03-24T20:04:08.125Z,26.99
2023-03-24T20:06:37.096Z,26.66
2023-03-24T20:09:06.126Z,26.92
2023-03-24T20:11:34.954Z,26.95
2023-03-24T20:14:05.119Z,26.75
2023-03-24T20:16:34.014Z,26.77
2023-03-24T20:19:02.988Z,26.90
2023-03-24T20:21:31.944Z,27.10
2023-03-24T20:24:01.194Z,27.24
2023-03-24T20:26:30.380Z,26.92
2023-03-24T20:28:59.143Z,26.83
2023-03-24T20:31:28.554Z,27.29
2023-03-24T20:33:57.241Z,27.15
2023-03-24T20:36:26.128Z,27.18
2023-03-24T20:38:54.865Z,27.13
2023-03-24T20:41:23.589Z,27.23
2023-03-24T20:43:53.022Z,27.02
2023-03-24T20:46:21.853Z,26.85
2023-03-24T20:48:51.079Z,26.89
2023-03-24T20:51:21.237Z,26.99
2023-03-24T20:53:50.159Z,26.92
2023-03-24T20:56:19.533Z,27.04
2023-03-24T20:58:48.449Z,27.07
2023-03-24T21:01:22.781Z,27.19
2023-03-24T21:03:53.501Z,27.10
2023-03-24T21:06:22.791Z,27.14
2023-03-24T21:08:53.125Z,27.19
2023-03-24T21:11:22.346Z,27.25
2023-03-24T21:13:51.129Z,27.12
2023-03-24T21:16:21.641Z,27.49
2023-03-24T21:18:50.508Z,27.40
2023-03-24T21:21:19.273Z,27.29
2023-03-24T21:23:48.055Z,27.11
2023-03-24T21:26:18.556Z,27.33
2023-03-24T21:28:47.326Z,27.56
2023-03-24T21:31:18.897Z,27.61
2023-03-24T21:33:48.141Z,27.52
2023-03-24T21:36:17.563Z,27.50
2023-03-24T21:38:52.535Z,27.46
2023-03-24T21:41:22.831Z,27.50
2023-03-24T21:43:54.736Z,27.51
2023-03-24T21:46:27.179Z,27.83
2023-03-24T21:48:59.804Z,27.89
2023-03-24T21:51:34.727Z,27.64
2023-03-24T21:54:07.031Z,28.00
2023-03-24T21:56:38.919Z,27.76
2023-03-24T21:59:07.759Z,27.60
2023-03-24T22:01:37.518Z,27.86
2023-03-24T22:04:09.309Z,27.60
2023-03-24T22:06:38.286Z,27.68
2023-03-24T22:09:08.741Z,27.86
2023-03-24T22:11:43.115Z,27.97
2023-03-24T22:14:13.179Z,28.14
2023-03-24T22:16:41.921Z,27.92
2023-03-24T22:19:10.796Z,28.20
2023-03-24T22:21:39.911Z,27.92
2023-03-24T22:24:08.906Z,28.41
2023-03-24T22:26:37.686Z,28.15
2023-03-24T22:29:06.721Z,28.55
2023-03-24T22:31:36.042Z,28.19
2023-03-24T22:34:04.857Z,28.27
2023-03-24T22:36:33.605Z,28.28
2023-03-24T22:39:02.421Z,28.64
2023-03-24T22:41:31.303Z,28.39
2023-03-24T22:44:00.012Z,28.66
2023-03-24T22:46:28.774Z,29.03
2023-03-24T22:48:57.606Z,28.43
2023-03-24T22:51:26.654Z,28.73
2023-03-24T22:53:55.488Z,28.53
2023-03-24T22:56:24.755Z,28.57
2023-03-24T22:58:53.544Z,28.72
2023-03-24T23:01:23.265Z,28.71
2023-03-24T23:03:52.303Z,29.04
2023-03-24T23:06:22.054Z,29.20
2023-03-24T23:08:50.975Z,29.18
2023-03-24T23:11:19.760Z,29.09
2023-03-24T23:13:51.034Z,28.82
2023-03-24T23:16:21.075Z,29.34
2023-03-24T23:18:50.571Z,28.95
2023-03-24T23:21:21.208Z,29.03
2023-03-24T23:23:49.973Z,28.94
2023-03-24T23:26:25.549Z,29.26
2023-03-24T23:28:55.770Z,29.04
2023-03-24T23:31:26.994Z,28.93
2023-03-24T23:33:58.190Z,29.15
2023-03-24T23:36:28.795Z,29.06
2023-03-24T23:38:57.893Z,28.90
2023-03-24T23:41:26.756Z,29.45
2023-03-24T23:43:55.631Z,29.43
2023-03-24T23:46:25.165Z,29.26
2023-03-24T23:48:54.041Z,29.28
2023-03-24T23:51:22.898Z,29.19
2023-03-24T23:53:51.874Z,29.34
2023-03-24T23:56:22.063Z,29.32
2023-03-24T23:58:50.899Z,29.02
